Eads, CO

3:59 PM MDT on June 02, 2015 (GMT -0600)
Kit Carson | | Change Station
CLOSE
Current Station
Personal Weather Station
Location: Kit Carson, CO
Elevation: 4301 ft
Nearby Weather Stations

Elev 4301 ft 38.77 °N, 102.79 °W | Updated 1 second ago

Clear
Clear
88.0 °F
Feels Like 86 °F
N
4.4
Wind Variable Wind from East
Gusts 7.0 mph

Today
High -- | Low -- °F
--% Chance of Precip.
Yesterday
High -- | Low -- °F
Precip. -- in
5:28 AM 8:09 PM
Full, 100% visible
Pressure 29.65 in
Visibility 9.0 miles
Clouds Clear
Heat Index 86 °F
Dew Point 52 °F
Humidity 29%
Rainfall 0.00 in
Snow Depth Not available.
UV 7 out of 12
Pollen 7.10 out of 12
Air Quality Not available.
Flu Activity Sporadic
METAR KLAA 022153Z AUTO 00000KT 9SM CLR 33/06 A2981 RMK AO2 SLP041 T03330061 TSNO

More Conditions Fewer Conditions

Pressure 29.65 in
Visibility 9.0 miles
Clouds Clear
Heat Index 86 °F
Dew Point 52 °F
Humidity 29%
Rainfall 0.00 in
Snow Depth Not available.
UV 7 out of 12
Pollen 7.10 out of 12
Air Quality Not available.
Flu Activity Sporadic
METAR KLAA 022153Z AUTO 00000KT 9SM CLR 33/06 A2981 RMK AO2 SLP041 T03330061 TSNO

More Conditions Fewer Conditions

10-Day Weather Forecast

×

Almanac

Astronomy

Jun. 02, 2015 Rise Set
Actual Time
Civil Twilight
Nautical Twilight
Astronomical Twilight
Moon
Length of Visible Light
Length of Day
Tomorrow will be .
, % of the Moon is Illuminated

Today's Extremes

State Highs State Lows

Community

WunderPhotos

Upload Photos

1,826,032 photos uploaded!

WunderBlogs® & News

Nearby

Air Quality

  Air Quality AQ Index Pollutant
Not available.

Snow Depth

Station Depth Elevation

Earthquake Activity

City Distance Mag. Time & Date
Minimum magnitude displayed is 2.5.

Coastal Water Temperatures

Place Temperature

Stations

Nearby Weather Stations

Station Location Temp. Windchill Dew Point Humidity Wind Precip. Elev Updated Type